sensor_id;sensor_type;location;lat;lon;timestamp;pressure;altitude;pressure_sealevel;temperature;humidity
70781;BME280;59514;48.810;2.134;2023-03-11T10:06:31;99726.31;;;6.30;69.47
70781;BME280;59514;48.810;2.134;2023-03-11T10:09:09;99725.47;;;6.36;68.38
70781;BME280;59514;48.810;2.134;2023-03-11T10:11:54;99738.09;;;6.47;67.84
70781;BME280;59514;48.810;2.134;2023-03-11T10:19:34;99750.13;;;6.93;65.64
70781;BME280;59514;48.810;2.134;2023-03-11T10:22:09;99742.31;;;7.17;65.45
70781;BME280;59514;48.810;2.134;2023-03-11T10:27:22;99746.66;;;7.97;61.81
70781;BME280;59514;48.810;2.134;2023-03-11T10:32:38;99752.81;;;8.33;60.15
70781;BME280;59514;48.810;2.134;2023-03-11T10:35:16;99744.88;;;8.09;60.40
70781;BME280;59514;48.810;2.134;2023-03-11T10:42:44;99732.72;;;8.31;57.96
70781;BME280;59514;48.810;2.134;2023-03-11T10:45:14;99741.22;;;8.69;58.98
70781;BME280;59514;48.810;2.134;2023-03-11T10:47:39;99744.00;;;9.15;56.92
70781;BME280;59514;48.810;2.134;2023-03-11T10:50:05;99747.84;;;9.19;56.08
70781;BME280;59514;48.810;2.134;2023-03-11T10:52:30;99744.97;;;9.32;56.49
70781;BME280;59514;48.810;2.134;2023-03-11T10:55:00;99743.69;;;9.70;55.14
70781;BME280;59514;48.810;2.134;2023-03-11T10:57:34;99742.75;;;9.76;53.56
70781;BME280;59514;48.810;2.134;2023-03-11T11:00:03;99744.84;;;9.74;53.13
70781;BME280;59514;48.810;2.134;2023-03-11T11:02:53;99736.63;;;10.15;53.64
70781;BME280;59514;48.810;2.134;2023-03-11T11:05:32;99734.84;;;10.20;53.60
70781;BME280;59514;48.810;2.134;2023-03-11T11:08:17;99741.13;;;10.37;55.23
70781;BME280;59514;48.810;2.134;2023-03-11T11:10:51;99730.72;;;10.41;52.00
70781;BME280;59514;48.810;2.134;2023-03-11T11:13:23;99726.78;;;10.32;51.65
70781;BME280;59514;48.810;2.134;2023-03-11T11:18:42;99736.34;;;9.53;55.01
70781;BME280;59514;48.810;2.134;2023-03-11T11:21:12;99727.44;;;9.99;52.97
70781;BME280;59514;48.810;2.134;2023-03-11T11:23:49;99733.75;;;9.82;53.07
70781;BME280;59514;48.810;2.134;2023-03-11T11:26:23;99719.31;;;9.71;52.61
70781;BME280;59514;48.810;2.134;2023-03-11T11:31:29;99712.63;;;10.65;50.34
70781;BME280;59514;48.810;2.134;2023-03-11T11:33:55;99719.47;;;10.04;50.53
70781;BME280;59514;48.810;2.134;2023-03-11T11:36:30;99722.56;;;9.85;52.63
70781;BME280;59514;48.810;2.134;2023-03-11T11:38:57;99725.69;;;9.93;52.01
70781;BME280;59514;48.810;2.134;2023-03-11T11:41:25;99725.41;;;10.74;49.49
70781;BME280;59514;48.810;2.134;2023-03-11T11:44:00;99716.50;;;11.02;50.14
70781;BME280;59514;48.810;2.134;2023-03-11T11:49:15;99715.78;;;10.45;49.99
70781;BME280;59514;48.810;2.134;2023-03-11T11:52:29;99725.53;;;10.23;51.19
70781;BME280;59514;48.810;2.134;2023-03-11T11:54:29;99724.09;;;10.32;50.03
70781;BME280;59514;48.810;2.134;2023-03-11T11:56:58;99729.56;;;10.37;50.55
70781;BME280;59514;48.810;2.134;2023-03-11T11:59:24;99709.81;;;10.43;50.71
70781;BME280;59514;48.810;2.134;2023-03-11T12:04:47;99719.47;;;10.72;50.08
70781;BME280;59514;48.810;2.134;2023-03-11T12:07:20;99720.91;;;10.91;49.17
70781;BME280;59514;48.810;2.134;2023-03-11T12:18:30;99701.03;;;11.25;47.94
70781;BME280;59514;48.810;2.134;2023-03-11T12:21:16;99704.41;;;11.54;47.45
70781;BME280;59514;48.810;2.134;2023-03-11T12:26:51;99685.53;;;12.09;46.06
70781;BME280;59514;48.810;2.134;2023-03-11T12:29:24;99692.22;;;13.08;44.74
70781;BME280;59514;48.810;2.134;2023-03-11T12:31:54;99678.00;;;13.18;43.52
70781;BME280;59514;48.810;2.134;2023-03-11T12:34:21;99683.03;;;12.77;44.22
70781;BME280;59514;48.810;2.134;2023-03-11T12:36:50;99686.91;;;12.60;44.12
70781;BME280;59514;48.810;2.134;2023-03-11T12:41:47;99684.88;;;11.97;46.21
70781;BME280;59514;48.810;2.134;2023-03-11T12:44:26;99679.84;;;11.84;46.13
70781;BME280;59514;48.810;2.134;2023-03-11T12:54:30;99684.75;;;11.87;47.25
70781;BME280;59514;48.810;2.134;2023-03-11T12:56:58;99687.03;;;11.78;46.90
70781;BME280;59514;48.810;2.134;2023-03-11T13:07:59;99677.41;;;10.61;50.63
70781;BME280;59514;48.810;2.134;2023-03-11T13:12:52;99679.13;;;10.67;51.45
70781;BME280;59514;48.810;2.134;2023-03-11T13:35:59;99675.94;;;9.86;53.33
70781;BME280;59514;48.810;2.134;2023-03-11T13:41:20;99679.16;;;10.11;52.67
70781;BME280;59514;48.810;2.134;2023-03-11T13:43:48;99670.41;;;10.32;53.67
70781;BME280;59514;48.810;2.134;2023-03-11T13:46:29;99678.69;;;10.14;53.03
70781;BME280;59514;48.810;2.134;2023-03-11T13:49:06;99677.28;;;10.11;52.93
70781;BME280;59514;48.810;2.134;2023-03-11T13:51:42;99676.03;;;10.30;53.13
70781;BME280;59514;48.810;2.134;2023-03-11T13:56:48;99682.63;;;9.72;54.37
70781;BME280;59514;48.810;2.134;2023-03-11T14:01:55;99688.34;;;9.64;54.28
70781;BME280;59514;48.810;2.134;2023-03-11T14:04:28;99677.94;;;10.18;53.14
70781;BME280;59514;48.810;2.134;2023-03-11T14:06:54;99673.28;;;10.42;52.67
70781;BME280;59514;48.810;2.134;2023-03-11T14:24:37;99690.47;;;10.13;54.54
70781;BME280;59514;48.810;2.134;2023-03-11T14:27:07;99680.63;;;10.30;53.97
70781;BME280;59514;48.810;2.134;2023-03-11T14:29:40;99690.19;;;10.26;54.55
70781;BME280;59514;48.810;2.134;2023-03-11T14:32:29;99681.56;;;10.24;55.06
